This is the latest recevied weather packets stored in our database for station/object G4RHR. If no packets are shown the sender has not sent any weather packets the latest 10 day(s).
| Time | Temp. | Humidity | Pressure | Rain* | Wind** | Luminosity | Snow |
|---|---|---|---|---|---|---|---|
| 1777592521 | 11.11° C | 72% | 1021.4 hPa | 0 mm | - | - | - |
| 1777591980 | 11.11° C | 72% | 1021.5 hPa | 0 mm | - | - | - |
| 1777587661 | 11.67° C | 70% | 1021.4 hPa | 0 mm | - | - | - |
| 1777585501 | 12.22° C | 71% | 1021.4 hPa | 0 mm | - | - | - |
| 1777582803 | 11.67° C | 75% | 1021.2 hPa | 0 mm | - | - | - |
| 1777580231 | 12.22° C | 73% | 1021.3 hPa | 0 mm | - | - | - |
| 1777578071 | 12.78° C | 68% | 1021.1 hPa | 0 mm | - | - | - |
| 1777575781 | 13.89° C | 64% | 1020.8 hPa | 0 mm | - | - | - |
| 1777574703 | 15° C | 61% | 1020.8 hPa | 0 mm | - | - | - |
| 1777574161 | 15.56° C | 59% | 1020.6 hPa | 0 mm | - | - | - |
| 1777564441 | 17.78° C | 49% | 1021.4 hPa | 0 mm | - | - | - |
| 1777559040 | 17.22° C | 47% | 1022.4 hPa | 0 mm | - | - | - |
| 1777548780 | 16.67° C | 53% | 1023.5 hPa | 0 mm | - | - | - |
| 1777547703 | 16.67° C | 51% | 1023.7 hPa | 0 mm | - | - | - |
| 1777546621 | 16.67° C | 54% | 1024 hPa | 0 mm | - | - | - |
| 1777538114 | 15° C | 58% | 1024.3 hPa | 0 mm | - | - | - |
| 1777525150 | 11.11° C | 76% | 1023.8 hPa | 0 mm | - | - | - |
| 1777523940 | 10.56° C | 75% | 1023.8 hPa | 0 mm | - | - | - |
| 1777522861 | 10.56° C | 75% | 1023.7 hPa | 0 mm | - | - | - |
| 1777522321 | 10.56° C | 75% | 1023.6 hPa | 0 mm | - | - | - |
| 1777521780 | 11.11° C | 75% | 1023.6 hPa | 0 mm | - | - | - |
| 1777520701 | 11.11° C | 74% | 1023.6 hPa | 0 mm | - | - | - |
| 1777514760 | 11.11° C | 76% | 1023.9 hPa | 0 mm | - | - | - |
| 1777511521 | 11.11° C | 74% | 1024 hPa | 0 mm | - | - | - |
| 1777503421 | 11.67° C | 78% | 1024.3 hPa | 0 mm | - | - | - |
* Rain latest hour (hover to see other rain measurements)
** Current wind speed in m/s (hover to see current wind gust speed)